Time;durP1;ratioP1;P1;durP2;ratioP2;P2;SDS_P1;SDS_P2;PMS_P1;PMS_P2;Temp;Humidity;BMP_temperature;BMP_pressure;BME280_temperature;BME280_humidity;BME280_pressure;Samples;Min_cycle;Max_cycle;Signal;HPM_P1;HPM_P2
2024/01/01 00:00:40;;;;;;;101.70;58.65;;;5.30;99.90;;;;;;5017367;28;20069;-47
2024/01/01 00:03:08;;;;;;;88.57;51.17;;;5.30;99.90;;;;;;5017836;28;20060;-48
2024/01/01 00:05:36;;;;;;;83.10;47.35;;;5.30;99.90;;;;;;5013812;28;20049;-48
2024/01/01 00:08:03;;;;;;;86.38;50.00;;;5.30;99.90;;;;;;5018232;28;20132;-47
2024/01/01 00:10:31;;;;;;;84.22;48.75;;;5.30;99.90;;;;;;5013344;28;20096;-51
2024/01/01 00:12:58;;;;;;;92.25;50.35;;;5.20;99.90;;;;;;5020617;28;20502;-47
2024/01/01 00:15:25;;;;;;;90.00;50.47;;;5.10;99.90;;;;;;5011814;28;20030;-47
2024/01/01 00:17:52;;;;;;;91.30;52.47;;;5.10;99.90;;;;;;5012671;28;20156;-50
2024/01/01 00:20:19;;;;;;;92.60;53.80;;;5.10;99.90;;;;;;5016648;28;20037;-46
2024/01/01 00:22:47;;;;;;;91.68;50.55;;;5.10;99.90;;;;;;5018183;28;20057;-48
2024/01/01 00:25:14;;;;;;;88.13;47.95;;;5.00;99.90;;;;;;5016665;28;20052;-53
2024/01/01 00:27:41;;;;;;;80.55;46.15;;;5.00;99.90;;;;;;5016999;28;20045;-49
2024/01/01 00:30:08;;;;;;;69.07;38.15;;;4.90;99.90;;;;;;5015882;28;20548;-47
2024/01/01 00:32:35;;;;;;;67.78;39.05;;;4.90;99.90;;;;;;5017502;28;20084;-48
2024/01/01 00:35:04;;;;;;;63.83;35.03;;;4.90;99.90;;;;;;5014936;28;20050;-46
2024/01/01 00:37:31;;;;;;;58.10;32.60;;;4.90;99.90;;;;;;5014650;28;20065;-50
2024/01/01 00:39:58;;;;;;;52.88;30.27;;;4.80;99.90;;;;;;5018422;28;20033;-51
2024/01/01 00:42:25;;;;;;;50.25;28.10;;;4.80;99.90;;;;;;5015654;28;20307;-50
2024/01/01 00:44:52;;;;;;;52.97;26.83;;;4.80;99.90;;;;;;5018246;28;20787;-46
2024/01/01 00:47:19;;;;;;;42.47;23.77;;;4.80;99.90;;;;;;5018435;28;20564;-47
2024/01/01 00:49:46;;;;;;;45.00;22.30;;;4.70;99.90;;;;;;5017677;28;20096;-48
2024/01/01 00:52:13;;;;;;;35.65;20.40;;;4.80;99.90;;;;;;5019038;28;20107;-46
2024/01/01 00:54:40;;;;;;;31.92;19.85;;;4.80;99.90;;;;;;5014230;28;20042;-48
2024/01/01 00:57:07;;;;;;;33.65;19.45;;;4.70;99.90;;;;;;5019039;28;20033;-48
2024/01/01 00:59:34;;;;;;;29.40;17.40;;;4.70;99.90;;;;;;5012805;28;20128;-47
2024/01/01 01:02:01;;;;;;;28.98;16.17;;;4.70;99.90;;;;;;5018065;28;20100;-47
2024/01/01 01:04:28;;;;;;;26.63;15.80;;;4.80;99.90;;;;;;5012094;28;20054;-49
2024/01/01 01:06:55;;;;;;;28.10;13.85;;;4.80;99.90;;;;;;5009754;28;20049;-50
2024/01/01 01:09:23;;;;;;;24.40;14.43;;;4.90;99.90;;;;;;5017606;28;20061;-47
2024/01/01 01:11:50;;;;;;;25.00;13.38;;;5.00;99.90;;;;;;5018272;28;20171;-49
2024/01/01 01:14:17;;;;;;;24.08;13.30;;;5.00;99.90;;;;;;5013156;28;20061;-48
2024/01/01 01:16:45;;;;;;;21.13;12.30;;;5.00;99.90;;;;;;5018283;28;20049;-44
2024/01/01 01:19:12;;;;;;;21.25;12.07;;;5.10;99.90;;;;;;5018448;28;20038;-51
2024/01/01 01:21:39;;;;;;;19.23;10.95;;;5.10;99.90;;;;;;5020385;28;20041;-48
2024/01/01 01:24:06;;;;;;;21.02;12.48;;;5.10;99.90;;;;;;5016382;28;20109;-50
2024/01/01 01:26:33;;;;;;;22.77;11.38;;;5.10;99.90;;;;;;5017922;28;20153;-48
2024/01/01 01:29:00;;;;;;;18.58;10.95;;;5.10;99.90;;;;;;5012492;28;20519;-49
2024/01/01 01:31:27;;;;;;;20.30;10.45;;;5.10;99.90;;;;;;5020960;28;20061;-47
2024/01/01 01:33:54;;;;;;;18.13;10.20;;;5.20;99.90;;;;;;5015458;28;20107;-47
2024/01/01 01:36:21;;;;;;;19.65;10.57;;;5.20;99.90;;;;;;5014102;28;20465;-44
2024/01/01 01:38:48;;;;;;;18.23;10.45;;;5.20;99.90;;;;;;5014148;28;20673;-48
2024/01/01 01:41:14;;;;;;;19.10;10.50;;;5.20;99.90;;;;;;5019953;28;20126;-50
2024/01/01 01:43:41;;;;;;;15.98;9.32;;;5.20;99.90;;;;;;5019195;28;20113;-48
2024/01/01 01:46:09;;;;;;;16.85;9.27;;;5.30;99.90;;;;;;5018391;28;20062;-47
2024/01/01 01:48:36;;;;;;;15.77;8.30;;;5.30;99.90;;;;;;5013386;28;20064;-44
2024/01/01 01:51:03;;;;;;;15.52;8.20;;;5.20;99.90;;;;;;5018467;28;20099;-48
2024/01/01 01:53:31;;;;;;;18.30;8.70;;;5.30;99.90;;;;;;5015819;28;20070;-49
2024/01/01 01:56:03;;;;;;;15.75;8.93;;;5.20;99.90;;;;;;5011601;28;20041;-49
2024/01/01 01:58:31;;;;;;;;;;;5.20;99.90;;;;;;5016144;28;20052;-51
2024/01/01 02:00:58;;;;;;;17.25;7.78;;;5.20;99.90;;;;;;5000068;28;19933;-45
2024/01/01 02:03:26;;;;;;;14.52;8.50;;;5.10;99.90;;;;;;5016573;28;20195;-49
2024/01/01 02:05:54;;;;;;;15.80;7.65;;;5.10;99.90;;;;;;5019982;28;20136;-48
2024/01/01 02:08:23;;;;;;;12.50;7.55;;;5.10;99.90;;;;;;5018829;28;20072;-47
2024/01/01 02:10:50;;;;;;;12.60;7.07;;;5.20;99.90;;;;;;5019055;28;20049;-48
2024/01/01 02:13:25;;;;;;;13.40;7.32;;;5.20;99.90;;;;;;5014901;28;20041;-46
2024/01/01 02:15:52;;;;;;;15.25;7.75;;;5.20;99.90;;;;;;5015397;28;20354;-44
2024/01/01 02:18:20;;;;;;;14.55;7.47;;;5.20;99.90;;;;;;5015514;28;20572;-46
2024/01/01 02:20:47;;;;;;;13.93;7.47;;;5.20;99.90;;;;;;5019622;28;20132;-49
2024/01/01 02:23:16;;;;;;;12.75;7.63;;;5.30;99.90;;;;;;5018773;28;20107;-48
2024/01/01 02:25:43;;;;;;;13.25;6.38;;;5.30;99.90;;;;;;5016419;28;20553;-47
2024/01/01 02:28:10;;;;;;;10.77;6.25;;;5.30;99.90;;;;;;5009333;28;20123;-45
2024/01/01 02:30:38;;;;;;;16.85;7.55;;;5.40;99.90;;;;;;5031654;28;20045;-50
2024/01/01 02:33:09;;;;;;;13.43;7.07;;;5.30;99.90;;;;;;5017331;28;20087;-49
2024/01/01 02:35:36;;;;;;;15.07;7.15;;;5.20;99.90;;;;;;5017408;28;20151;-48
2024/01/01 02:38:04;;;;;;;10.95;6.25;;;5.10;99.90;;;;;;5012863;28;20487;-48
2024/01/01 02:40:33;;;;;;;12.85;7.10;;;5.10;99.90;;;;;;5010944;28;20415;-49
2024/01/01 02:43:01;;;;;;;11.80;6.60;;;5.10;99.90;;;;;;5015614;28;20103;-45
2024/01/01 02:45:28;;;;;;;13.60;6.20;;;5.00;99.90;;;;;;5007184;28;20132;-49
2024/01/01 02:47:56;;;;;;;12.68;6.63;;;5.00;99.90;;;;;;5006719;28;20145;-50
2024/01/01 02:50:25;;;;;;;14.60;6.72;;;5.00;99.90;;;;;;5015213;28;20056;-49
2024/01/01 02:52:52;;;;;;;15.07;7.57;;;4.90;99.90;;;;;;5013846;28;20053;-48
2024/01/01 02:55:19;;;;;;;12.00;6.28;;;4.80;99.90;;;;;;5013101;28;20067;-47
2024/01/01 02:57:46;;;;;;;12.00;7.13;;;4.80;99.90;;;;;;5012047;28;20092;-47
2024/01/01 03:00:14;;;;;;;12.10;7.13;;;4.90;99.90;;;;;;5016678;28;20053;-48
2024/01/01 03:02:42;;;;;;;12.35;7.50;;;4.90;99.90;;;;;;5010614;28;20056;-47
2024/01/01 03:05:09;;;;;;;13.43;7.72;;;4.90;99.90;;;;;;5021625;28;20120;-49
2024/01/01 03:07:37;;;;;;;14.98;7.93;;;4.90;99.90;;;;;;5024586;28;20422;-50
2024/01/01 03:10:04;;;;;;;14.25;7.00;;;4.90;99.90;;;;;;5030863;28;20072;-47
2024/01/01 03:12:32;;;;;;;16.52;6.85;;;5.00;99.90;;;;;;5026350;28;20069;-45
2024/01/01 03:15:01;;;;;;;15.15;7.05;;;5.00;99.90;;;;;;5020771;28;20046;-50
2024/01/01 03:17:29;;;;;;;14.52;7.05;;;5.00;99.90;;;;;;5016242;28;20047;-49
2024/01/01 03:19:56;;;;;;;15.05;7.53;;;5.00;99.90;;;;;;5016872;28;20042;-49
2024/01/01 03:22:23;;;;;;;15.02;7.60;;;4.90;99.90;;;;;;5013523;28;20133;-49
2024/01/01 03:24:50;;;;;;;14.45;7.00;;;5.00;99.90;;;;;;5022397;28;20312;-46
2024/01/01 03:27:17;;;;;;;12.85;7.75;;;4.90;99.90;;;;;;5019879;28;20607;-51
2024/01/01 03:29:44;;;;;;;12.40;7.10;;;4.90;99.90;;;;;;5017707;28;20049;-48
2024/01/01 03:32:11;;;;;;;16.20;7.57;;;4.90;99.90;;;;;;5019679;28;20057;-48
2024/01/01 03:34:39;;;;;;;15.88;8.68;;;4.90;99.90;;;;;;5016827;28;20068;-46
2024/01/01 03:37:06;;;;;;;17.33;7.78;;;4.90;99.90;;;;;;5017941;28;20545;-49
2024/01/01 03:39:33;;;;;;;16.13;8.20;;;4.90;99.90;;;;;;5016825;28;20042;-45
2024/01/01 03:42:00;;;;;;;15.15;8.48;;;4.90;99.90;;;;;;5019535;28;20073;-45
2024/01/01 03:44:27;;;;;;;19.98;9.10;;;4.90;99.90;;;;;;5016821;28;20056;-47
2024/01/01 03:46:53;;;;;;;14.25;8.18;;;4.90;99.90;;;;;;5021217;28;20132;-48
2024/01/01 03:49:21;;;;;;;14.77;8.05;;;4.90;99.90;;;;;;5015958;28;20041;-52
2024/01/01 03:51:48;;;;;;;19.83;9.18;;;4.90;99.90;;;;;;5020127;28;20056;-46
2024/01/01 03:54:15;;;;;;;14.23;8.43;;;4.90;99.90;;;;;;5019443;28;20077;-48
2024/01/01 03:56:43;;;;;;;23.38;9.32;;;4.90;99.90;;;;;;5016474;28;20518;-46
2024/01/01 03:59:10;;;;;;;13.73;8.68;;;4.80;99.90;;;;;;5021678;28;20115;-48
2024/01/01 04:01:37;;;;;;;13.75;8.25;;;4.80;99.90;;;;;;5016018;28;20038;-45
2024/01/01 04:04:06;;;;;;;18.20;8.85;;;4.90;99.90;;;;;;5019345;28;20100;-49
2024/01/01 04:06:33;;;;;;;18.27;9.35;;;4.90;99.90;;;;;;5014155;28;20116;-47
2024/01/01 04:09:01;;;;;;;16.25;9.43;;;4.90;99.90;;;;;;5019490;28;20045;-49
2024/01/01 04:11:28;;;;;;;17.77;8.90;;;5.00;99.90;;;;;;5012905;28;20303;-51
2024/01/01 04:13:55;;;;;;;12.80;7.35;;;5.00;99.90;;;;;;5013447;28;20051;-51
2024/01/01 04:16:22;;;;;;;21.20;8.68;;;5.00;99.90;;;;;;5020932;28;20041;-49
2024/01/01 04:18:50;;;;;;;16.80;8.70;;;5.00;99.90;;;;;;5015761;28;20495;-51
2024/01/01 04:21:17;;;;;;;17.40;9.35;;;5.00;99.90;;;;;;5001815;28;20042;-51
2024/01/01 04:23:44;;;;;;;16.90;8.88;;;5.00;99.90;;;;;;5017508;28;20042;-49
2024/01/01 04:26:13;;;;;;;15.65;9.27;;;5.00;99.90;;;;;;5018737;28;20045;-45
2024/01/01 04:28:41;;;;;;;18.10;8.98;;;5.00;99.90;;;;;;5014839;28;20064;-47
2024/01/01 04:31:08;;;;;;;16.50;9.27;;;4.90;99.90;;;;;;5018479;28;20045;-48
2024/01/01 04:33:35;;;;;;;14.35;8.60;;;4.80;99.90;;;;;;5017803;28;20363;-47
2024/01/01 04:36:03;;;;;;;21.33;9.43;;;4.80;99.90;;;;;;5018132;28;20099;-47
2024/01/01 04:38:30;;;;;;;19.50;9.80;;;4.80;99.90;;;;;;5014639;28;20048;-48
2024/01/01 04:40:57;;;;;;;17.73;8.82;;;4.90;99.90;;;;;;5014376;28;20533;-48
2024/01/01 04:43:25;;;;;;;18.02;10.68;;;4.80;99.90;;;;;;5012425;28;20038;-48
2024/01/01 04:45:52;;;;;;;17.27;8.93;;;4.90;99.90;;;;;;5011849;28;20084;-49
2024/01/01 04:48:19;;;;;;;17.23;8.88;;;4.90;99.90;;;;;;5011953;28;20038;-49
2024/01/01 04:50:46;;;;;;;20.10;9.20;;;4.90;99.90;;;;;;5018481;28;20044;-47
2024/01/01 04:53:13;;;;;;;18.38;9.27;;;4.80;99.90;;;;;;5018873;28;20045;-52
2024/01/01 04:55:40;;;;;;;18.58;9.20;;;4.80;99.90;;;;;;5019142;28;20105;-49
2024/01/01 04:58:07;;;;;;;15.55;8.85;;;4.90;99.90;;;;;;5019721;28;20057;-47
2024/01/01 05:00:34;;;;;;;18.42;8.85;;;4.90;99.90;;;;;;5016483;28;20384;-49
2024/01/01 05:03:01;;;;;;;16.55;8.35;;;4.90;99.90;;;;;;5016218;28;20538;-48
2024/01/01 05:05:28;;;;;;;18.27;8.75;;;4.90;99.90;;;;;;5014123;28;20050;-46
2024/01/01 05:07:55;;;;;;;16.73;8.25;;;5.00;99.90;;;;;;5019508;28;20084;-50
2024/01/01 05:10:22;;;;;;;18.75;8.30;;;5.10;99.90;;;;;;5009503;28;20042;-49
2024/01/01 05:12:49;;;;;;;13.85;7.93;;;5.20;99.90;;;;;;5016968;28;20060;-49
2024/01/01 05:15:16;;;;;;;17.95;9.00;;;5.20;99.90;;;;;;5018775;28;20585;-51
2024/01/01 05:17:43;;;;;;;16.58;8.18;;;5.10;99.90;;;;;;5015139;28;20123;-50
2024/01/01 05:20:10;;;;;;;17.15;7.80;;;5.10;99.90;;;;;;5014814;28;20038;-48
2024/01/01 05:22:37;;;;;;;15.02;8.00;;;5.10;99.90;;;;;;5008360;28;20048;-51
2024/01/01 05:25:05;;;;;;;15.10;8.20;;;5.10;99.90;;;;;;5018609;28;20057;-49
2024/01/01 05:27:31;;;;;;;15.93;7.97;;;5.00;99.90;;;;;;5017241;28;20073;-46
2024/01/01 05:29:59;;;;;;;16.40;8.50;;;5.00;99.90;;;;;;5016599;28;20053;-49
2024/01/01 05:32:26;;;;;;;18.80;9.20;;;4.90;99.90;;;;;;5016593;28;20561;-48
2024/01/01 05:34:53;;;;;;;16.10;8.85;;;4.80;99.90;;;;;;5016250;28;20087;-49
2024/01/01 05:37:20;;;;;;;14.45;8.05;;;4.80;99.90;;;;;;5017758;28;20591;-50
2024/01/01 05:39:47;;;;;;;16.25;8.27;;;4.80;99.90;;;;;;5018166;28;20224;-52
2024/01/01 05:42:14;;;;;;;17.10;8.13;;;4.80;99.90;;;;;;5018431;28;20052;-46
2024/01/01 05:44:41;;;;;;;18.92;8.52;;;4.80;99.90;;;;;;5012915;28;20054;-47
2024/01/01 05:47:08;;;;;;;16.20;8.82;;;4.80;99.90;;;;;;5017646;28;20076;-49
2024/01/01 05:49:35;;;;;;;17.25;8.10;;;4.80;99.90;;;;;;5012379;28;20503;-49
2024/01/01 05:52:04;;;;;;;15.13;8.20;;;4.80;99.90;;;;;;5017634;28;20052;-45
2024/01/01 05:54:31;;;;;;;14.00;7.68;;;4.80;99.90;;;;;;5011078;28;20049;-47
2024/01/01 05:56:58;;;;;;;14.65;7.75;;;4.80;99.90;;;;;;5016610;28;20081;-48
2024/01/01 05:59:25;;;;;;;12.30;7.45;;;4.80;99.90;;;;;;5011887;28;20057;-48
2024/01/01 06:01:52;;;;;;;14.55;7.88;;;4.80;99.90;;;;;;5013775;28;20489;-48
2024/01/01 06:04:19;;;;;;;13.98;7.57;;;4.80;99.90;;;;;;5013872;28;20585;-50
2024/01/01 06:06:46;;;;;;;17.92;8.15;;;4.80;99.90;;;;;;5019178;28;20065;-46
2024/01/01 06:09:14;;;;;;;13.38;7.32;;;4.90;99.90;;;;;;5015536;28;20057;-48
2024/01/01 06:11:41;;;;;;;15.35;7.43;;;4.80;99.90;;;;;;5017815;28;20046;-47
2024/01/01 06:14:08;;;;;;;11.95;6.68;;;4.80;99.90;;;;;;5013228;28;20084;-49
2024/01/01 06:16:35;;;;;;;14.80;7.18;;;4.90;99.90;;;;;;5017478;28;20046;-50
2024/01/01 06:19:02;;;;;;;13.55;7.57;;;5.00;99.90;;;;;;5009503;28;20180;-50
2024/01/01 06:21:29;;;;;;;13.27;6.75;;;5.00;99.90;;;;;;5009959;28;20081;-48
2024/01/01 06:23:56;;;;;;;13.38;7.18;;;4.90;99.90;;;;;;5013858;28;20506;-48
2024/01/01 06:26:23;;;;;;;16.77;7.80;;;5.00;99.90;;;;;;5009772;28;20075;-50
2024/01/01 06:28:50;;;;;;;15.82;6.78;;;4.90;99.90;;;;;;5014019;28;20044;-48
2024/01/01 06:31:17;;;;;;;15.65;6.97;;;4.90;99.90;;;;;;5014758;28;20077;-50
2024/01/01 06:33:44;;;;;;;14.30;6.45;;;4.90;99.90;;;;;;5014100;28;20042;-47
2024/01/01 06:36:11;;;;;;;12.07;6.78;;;4.90;99.90;;;;;;5010064;28;20056;-46
2024/01/01 06:38:38;;;;;;;14.10;6.80;;;4.90;99.90;;;;;;5008230;28;20082;-48
2024/01/01 06:41:06;;;;;;;12.45;5.85;;;4.90;99.90;;;;;;5017380;28;20129;-48
2024/01/01 06:43:33;;;;;;;17.98;6.85;;;4.80;99.90;;;;;;5011432;28;20452;-47
2024/01/01 06:46:00;;;;;;;12.73;6.00;;;4.80;99.90;;;;;;5019345;28;20049;-46
2024/01/01 06:48:27;;;;;;;13.50;6.13;;;4.80;99.90;;;;;;5009824;28;20054;-46
2024/01/01 06:50:55;;;;;;;10.95;6.28;;;4.80;99.90;;;;;;5012809;28;20091;-48
2024/01/01 06:53:22;;;;;;;14.45;7.30;;;4.70;99.90;;;;;;5015697;28;20053;-49
2024/01/01 06:55:49;;;;;;;15.85;6.97;;;4.60;99.90;;;;;;5015482;28;20050;-47
2024/01/01 06:58:15;;;;;;;12.52;5.90;;;4.60;99.90;;;;;;5015698;28;20037;-48
2024/01/01 07:00:43;;;;;;;10.73;5.32;;;4.60;99.90;;;;;;5013395;28;20050;-49
2024/01/01 07:03:10;;;;;;;10.73;5.78;;;4.70;99.90;;;;;;5017405;28;20042;-48
2024/01/01 07:05:37;;;;;;;14.77;6.13;;;4.70;99.90;;;;;;5013501;28;20050;-47
2024/01/01 07:08:04;;;;;;;11.98;6.03;;;4.70;99.90;;;;;;5019324;28;20044;-48
2024/01/01 07:10:32;;;;;;;13.20;5.65;;;4.70;99.90;;;;;;5013419;28;20732;-48
2024/01/01 07:12:59;;;;;;;13.50;5.65;;;4.80;99.90;;;;;;5015919;28;20657;-46
2024/01/01 07:15:26;;;;;;;12.02;5.20;;;4.90;99.90;;;;;;5011873;28;20073;-49
2024/01/01 07:17:53;;;;;;;13.30;5.38;;;4.90;99.90;;;;;;5015799;28;20045;-48
2024/01/01 07:20:22;;;;;;;13.25;6.03;;;4.90;99.90;;;;;;5016104;28;20049;-46
2024/01/01 07:22:49;;;;;;;12.75;5.35;;;5.00;99.90;;;;;;5013669;28;20447;-50
2024/01/01 07:25:16;;;;;;;11.63;5.53;;;5.00;99.90;;;;;;5010575;28;20080;-49
2024/01/01 07:27:43;;;;;;;13.18;6.00;;;5.00;99.90;;;;;;5016664;28;20515;-47
2024/01/01 07:30:10;;;;;;;10.48;5.50;;;5.00;99.90;;;;;;5014631;28;20469;-50
2024/01/01 07:32:37;;;;;;;11.50;5.60;;;5.00;99.90;;;;;;5012008;28;20053;-46
2024/01/01 07:35:06;;;;;;;10.23;5.53;;;5.00;99.90;;;;;;5014110;28;20045;-47
2024/01/01 07:37:33;;;;;;;14.55;5.45;;;5.10;99.90;;;;;;5016306;28;20048;-51
2024/01/01 07:40:00;;;;;;;12.05;5.32;;;5.10;99.90;;;;;;5013662;28;20273;-47
2024/01/01 07:42:27;;;;;;;11.73;5.30;;;5.10;99.90;;;;;;5016230;28;20057;-48
2024/01/01 07:44:54;;;;;;;12.55;5.53;;;5.10;99.90;;;;;;5010128;28;20410;-51
2024/01/01 07:47:21;;;;;;;9.65;4.90;;;5.10;99.90;;;;;;5016008;28;20053;-47
2024/01/01 07:49:48;;;;;;;13.60;5.57;;;5.10;99.90;;;;;;5013835;28;20053;-47
2024/01/01 07:52:15;;;;;;;12.43;5.38;;;5.00;99.90;;;;;;5016435;28;20073;-51
2024/01/01 07:54:42;;;;;;;10.85;5.35;;;5.00;99.90;;;;;;5007607;28;20047;-51
2024/01/01 07:57:09;;;;;;;13.55;5.53;;;5.00;99.90;;;;;;5013250;28;20149;-52
2024/01/01 07:59:36;;;;;;;9.65;5.13;;;5.00;99.90;;;;;;5018054;28;20139;-55
2024/01/01 08:02:03;;;;;;;11.05;5.32;;;5.00;99.90;;;;;;5018913;28;20041;-52
2024/01/01 08:04:30;;;;;;;9.75;4.95;;;5.10;99.90;;;;;;5017186;28;20045;-50
2024/01/01 08:06:57;;;;;;;12.82;5.20;;;5.10;99.90;;;;;;5006239;28;20445;-51
2024/01/01 08:09:24;;;;;;;9.80;4.60;;;5.20;99.90;;;;;;5018054;28;20561;-51
2024/01/01 08:11:50;;;;;;;13.95;5.22;;;5.10;99.90;;;;;;5028697;28;20096;-48
2024/01/01 08:14:17;;;;;;;11.63;4.80;;;5.10;99.90;;;;;;5022507;28;20561;-51
2024/01/01 08:16:44;;;;;;;8.30;4.18;;;5.10;99.90;;;;;;5028282;28;20048;-49
2024/01/01 08:19:11;;;;;;;11.40;5.10;;;5.20;99.90;;;;;;5017856;28;20046;-50
2024/01/01 08:21:38;;;;;;;8.65;4.15;;;5.20;99.90;;;;;;5020738;28;20050;-47
2024/01/01 08:24:06;;;;;;;10.20;4.28;;;5.30;99.90;;;;;;5018497;28;20461;-51
2024/01/01 08:26:32;;;;;;;9.93;3.90;;;5.40;99.90;;;;;;5014274;28;20042;-53
2024/01/01 08:28:59;;;;;;;8.98;3.88;;;5.50;99.90;;;;;;5017923;28;20083;-48
2024/01/01 08:31:26;;;;;;;10.93;4.20;;;5.60;99.90;;;;;;5020214;28;20474;-50
2024/01/01 08:33:53;;;;;;;9.60;4.30;;;5.70;99.90;;;;;;5018885;28;20371;-49
2024/01/01 08:36:20;;;;;;;11.20;4.25;;;5.80;99.90;;;;;;5016010;28;20132;-49
2024/01/01 08:38:47;;;;;;;9.55;3.90;;;5.90;99.90;;;;;;5011504;28;20064;-51
2024/01/01 08:41:15;;;;;;;9.73;3.90;;;6.00;99.90;;;;;;5011055;28;20128;-47
2024/01/01 08:43:46;;;;;;;7.63;4.77;;;6.10;99.90;;;;;;5013505;28;20049;-49
2024/01/01 08:46:14;;;;;;;10.43;4.25;;;6.10;99.90;;;;;;5011612;28;20440;-49
2024/01/01 08:48:42;;;;;;;8.50;3.72;;;6.20;99.90;;;;;;5016194;28;20053;-52
2024/01/01 08:51:09;;;;;;;7.72;3.75;;;6.20;99.90;;;;;;5006633;28;20435;-50
2024/01/01 08:53:36;;;;;;;8.07;3.47;;;6.20;99.90;;;;;;5002912;28;20542;-52
2024/01/01 08:56:04;;;;;;;8.38;3.72;;;6.30;99.90;;;;;;5001062;28;20050;-51
2024/01/01 08:58:31;;;;;;;9.38;3.80;;;6.40;99.90;;;;;;5003067;28;20081;-50
2024/01/01 09:00:58;;;;;;;7.47;4.22;;;6.40;99.90;;;;;;5002323;28;20046;-47
2024/01/01 09:03:27;;;;;;;8.93;3.70;;;6.50;99.90;;;;;;5008683;28;20507;-51
2024/01/01 09:05:56;;;;;;;7.22;3.83;;;6.40;99.90;;;;;;5018724;28;20061;-52
2024/01/01 09:08:24;;;;;;;10.73;3.30;;;6.40;99.90;;;;;;5021388;28;20387;-50
2024/01/01 09:10:51;;;;;;;7.13;3.63;;;6.30;99.90;;;;;;5019410;28;20132;-47
2024/01/01 09:13:18;;;;;;;12.60;3.95;;;6.30;99.90;;;;;;5018910;28;20049;-50
2024/01/01 09:15:45;;;;;;;6.60;3.17;;;6.20;99.90;;;;;;5019125;28;20041;-50
2024/01/01 09:18:12;;;;;;;9.85;3.65;;;6.30;99.90;;;;;;5017452;28;20422;-49
2024/01/01 09:20:41;;;;;;;11.75;3.85;;;6.30;99.90;;;;;;5016569;28;20041;-51
2024/01/01 09:23:08;;;;;;;8.80;3.13;;;6.30;99.90;;;;;;5014797;28;20549;-47
2024/01/01 09:25:40;;;;;;;8.75;3.50;;;6.40;99.90;;;;;;5016115;28;20048;-48
2024/01/01 09:28:07;;;;;;;8.93;3.45;;;6.50;99.90;;;;;;5017486;28;20423;-45
2024/01/01 09:30:35;;;;;;;6.93;3.40;;;6.60;99.90;;;;;;5014947;28;20120;-50
2024/01/01 09:33:02;;;;;;;7.43;3.30;;;6.70;99.90;;;;;;5017051;28;20060;-51
2024/01/01 09:35:29;;;;;;;7.47;3.03;;;6.80;99.90;;;;;;5013083;28;20117;-46
2024/01/01 09:37:57;;;;;;;9.60;3.70;;;7.00;99.90;;;;;;5008181;28;20107;-45
2024/01/01 09:40:24;;;;;;;8.43;3.00;;;7.00;99.90;;;;;;5016205;28;20042;-48
2024/01/01 09:42:51;;;;;;;7.65;2.78;;;7.10;99.90;;;;;;5020003;28;20506;-50
2024/01/01 09:45:19;;;;;;;6.28;3.35;;;7.20;99.90;;;;;;5015509;28;20120;-49
2024/01/01 09:47:46;;;;;;;7.50;3.50;;;7.20;99.90;;;;;;5016820;28;20514;-50
2024/01/01 09:50:13;;;;;;;6.32;3.03;;;7.30;99.90;;;;;;5006888;28;20489;-49
2024/01/01 09:52:40;;;;;;;6.75;2.67;;;7.30;99.90;;;;;;5010302;28;20100;-43
2024/01/01 09:55:08;;;;;;;6.90;2.65;;;7.40;99.90;;;;;;5016393;28;20356;-49
2024/01/01 09:57:35;;;;;;;6.93;2.83;;;7.60;99.90;;;;;;5012986;28;20044;-46
2024/01/01 10:00:05;;;;;;;8.88;3.33;;;7.70;99.90;;;;;;5016310;28;20120;-46
2024/01/01 10:02:37;;;;;;;8.27;2.65;;;7.70;99.90;;;;;;5011371;28;20649;-44
2024/01/01 10:05:12;;;;;;;5.85;3.05;;;7.70;99.90;;;;;;5014943;28;20038;-44
2024/01/01 10:07:40;;;;;;;6.00;2.58;;;7.70;99.90;;;;;;5013670;28;20060;-47
2024/01/01 10:10:08;;;;;;;8.80;3.20;;;7.80;99.90;;;;;;5017977;28;20330;-52
2024/01/01 10:12:35;;;;;;;9.77;2.75;;;7.80;99.90;;;;;;5011658;28;20045;-43
2024/01/01 10:15:02;;;;;;;6.07;2.70;;;7.70;99.90;;;;;;5020506;28;20154;-46
2024/01/01 10:17:30;;;;;;;10.73;3.10;;;7.70;99.90;;;;;;5009970;28;20522;-51
2024/01/01 10:20:02;;;;;;;9.75;2.53;;;7.90;99.90;;;;;;5016539;28;20155;-46
2024/01/01 10:22:31;;;;;;;8.63;2.70;;;7.80;99.90;;;;;;5015095;28;20447;-47
2024/01/01 10:25:13;;;;;;;9.50;2.70;;;7.90;99.90;;;;;;5007561;28;20299;-48
2024/01/01 10:27:44;;;;;;;6.32;2.60;;;8.10;99.90;;;;;;5008377;28;20120;-54
2024/01/01 10:30:11;;;;;;;6.78;2.55;;;8.40;99.90;;;;;;5012264;28;20529;-47
2024/01/01 10:32:40;;;;;;;8.82;2.70;;;8.50;99.90;;;;;;5016037;28;22343;-49
2024/01/01 10:35:12;;;;;;;6.25;2.60;;;8.60;99.90;;;;;;5011547;28;20128;-45
2024/01/01 10:37:42;;;;;;;6.40;2.30;;;8.60;99.90;;;;;;5013788;28;21066;-46
2024/01/01 10:40:14;;;;;;;8.32;2.42;;;8.50;99.90;;;;;;5011825;28;20051;-43
2024/01/01 10:42:47;;;;;;;7.18;2.83;;;8.50;99.90;;;;;;5013503;28;20041;-52
2024/01/01 10:45:14;;;;;;;11.60;3.20;;;8.40;99.90;;;;;;5015186;28;20403;-47
2024/01/01 10:47:43;;;;;;;5.10;2.60;;;8.30;99.90;;;;;;5009329;28;20112;-53
2024/01/01 10:50:30;;;;;;;6.63;2.70;;;8.50;99.90;;;;;;5017446;28;20048;-43
2024/01/01 10:53:18;;;;;;;6.22;2.40;;;8.80;99.90;;;;;;5017127;28;20045;-44
2024/01/01 10:56:25;;;;;;;6.07;2.90;;;9.00;99.90;;;;;;5016310;28;20063;-46
2024/01/01 10:59:20;;;;;;;4.90;2.28;;;9.00;99.90;;;;;;5010122;28;20050;-46
2024/01/01 11:01:52;;;;;;;4.90;2.20;;;8.90;99.90;;;;;;5002672;28;20046;-47
2024/01/01 11:04:20;;;;;;;;;;;8.80;99.90;;;;;;5006653;28;20050;-46
2024/01/01 11:06:47;;;;;;;8.00;2.40;;;8.70;99.90;;;;;;5012236;28;19976;-50
2024/01/01 11:09:20;;;;;;;7.95;2.40;;;8.60;99.90;;;;;;5007394;28;20119;-51
2024/01/01 11:11:51;;;;;;;8.15;2.70;;;8.50;99.90;;;;;;5015102;28;20050;-52
2024/01/01 11:14:27;;;;;;;6.47;2.40;;;8.60;99.90;;;;;;5009108;28;20062;-45
2024/01/01 11:16:56;;;;;;;7.60;2.47;;;8.90;99.90;;;;;;5014101;28;20045;-48
2024/01/01 11:19:56;;;;;;;9.13;3.58;;;9.00;99.90;;;;;;5013437;28;20081;-47
2024/01/01 11:22:31;;;;;;;7.97;2.33;;;9.00;99.90;;;;;;5004993;28;20129;-48
2024/01/01 11:25:00;;;;;;;7.88;2.50;;;9.10;99.90;;;;;;5006079;28;20046;-46
2024/01/01 11:27:31;;;;;;;5.80;2.42;;;9.40;99.90;;;;;;5012836;28;20145;-45
2024/01/01 11:30:03;;;;;;;5.82;2.20;;;9.30;99.90;;;;;;5012236;28;20128;-47
2024/01/01 11:32:32;;;;;;;8.00;2.75;;;9.20;99.90;;;;;;5016446;28;20277;-48
2024/01/01 11:35:08;;;;;;;7.57;2.42;;;9.10;99.90;;;;;;5018045;28;20506;-49
2024/01/01 11:37:37;;;;;;;7.40;2.53;;;8.90;99.90;;;;;;5020636;28;20392;-50
2024/01/01 11:40:05;;;;;;;9.73;3.15;;;8.90;99.90;;;;;;5019912;28;20125;-45
2024/01/01 11:42:37;;;;;;;7.47;2.80;;;8.60;99.90;;;;;;5018120;28;20410;-43
2024/01/01 11:45:04;;;;;;;5.68;2.40;;;8.50;99.90;;;;;;5020806;28;20046;-45
2024/01/01 11:47:32;;;;;;;9.13;3.30;;;8.50;99.90;;;;;;5017089;28;20066;-49
2024/01/01 11:50:02;;;;;;;8.90;2.78;;;8.50;99.90;;;;;;5017720;28;20056;-44
2024/01/01 11:52:30;;;;;;;10.32;2.92;;;8.50;99.90;;;;;;5016927;28;20605;-47
2024/01/01 11:54:57;;;;;;;6.63;2.45;;;8.50;99.90;;;;;;5010060;28;20083;-51
2024/01/01 11:57:24;;;;;;;9.20;2.53;;;8.40;99.90;;;;;;5012662;28;20074;-47
2024/01/01 11:59:51;;;;;;;7.55;2.67;;;8.30;99.90;;;;;;5022155;28;20050;-48
2024/01/01 12:02:19;;;;;;;7.80;3.03;;;8.40;99.90;;;;;;5020497;28;20088;-50
2024/01/01 12:04:48;;;;;;;9.75;2.55;;;8.40;99.90;;;;;;5017800;28;20216;-48
2024/01/01 12:07:28;;;;;;;9.57;3.40;;;8.50;99.90;;;;;;5018872;28;20045;-54
2024/01/01 12:10:09;;;;;;;11.95;2.70;;;8.30;99.90;;;;;;5021592;28;20124;-48
2024/01/01 12:12:40;;;;;;;8.70;2.80;;;8.40;99.90;;;;;;5018808;28;20057;-53
2024/01/01 12:15:15;;;;;;;10.10;2.53;;;8.30;99.90;;;;;;5017217;28;20050;-48
2024/01/01 12:17:51;;;;;;;8.32;3.35;;;8.30;99.90;;;;;;5019715;28;20215;-49
2024/01/01 12:20:22;;;;;;;10.48;2.80;;;8.40;99.90;;;;;;5019555;28;20053;-50
2024/01/01 12:22:50;;;;;;;8.07;3.10;;;8.30;99.90;;;;;;5017460;28;20419;-49
2024/01/01 12:25:19;;;;;;;8.93;3.13;;;8.30;99.90;;;;;;5015129;28;20398;-46
2024/01/01 12:28:05;;;;;;;11.73;3.28;;;8.30;99.90;;;;;;5010921;28;20046;-48
2024/01/01 12:30:36;;;;;;;6.03;2.63;;;8.50;99.90;;;;;;5014872;28;20054;-45
2024/01/01 12:33:04;;;;;;;8.35;2.65;;;8.70;99.90;;;;;;5020648;28;20053;-47
2024/01/01 12:35:35;;;;;;;9.00;2.70;;;8.60;99.90;;;;;;5013102;28;20038;-47
2024/01/01 12:38:02;;;;;;;6.28;2.63;;;8.60;99.90;;;;;;5018885;28;20060;-46
2024/01/01 12:40:29;;;;;;;6.93;2.70;;;8.60;99.90;;;;;;5018255;28;20053;-45
2024/01/01 12:42:57;;;;;;;8.18;2.50;;;8.50;99.90;;;;;;5016190;28;20088;-46
2024/01/01 12:45:25;;;;;;;10.00;3.42;;;8.50;99.90;;;;;;5013964;28;20070;-46
2024/01/01 12:47:53;;;;;;;9.38;2.75;;;8.50;99.90;;;;;;5010690;28;20521;-46
2024/01/01 12:50:20;;;;;;;10.27;2.70;;;8.70;99.90;;;;;;5017211;28;20388;-49
2024/01/01 12:52:48;;;;;;;6.25;2.90;;;8.70;99.90;;;;;;5016304;28;20080;-47